Portada
METAR-TAF:

METAR-TAF

Aeroports :

Al-Riyad, Aràbia Saudita

latitud: 24-56N, longitud: 046-43E, altitud: 614 m

Observació

L'informe es va fer fa 24 minuts, a les 11:00 UTC
Vent 11 kt del Sud
Temperatura 24°C
Humitat 44%
Pressió 1015 hPa
Visibilitat 10 km o més
sense núvols per sota de 1500 mi sense presència de cumulonimbus.

METAR: OERK 181100Z 17011KT CAVOK 24/11 Q1015 NOSIG

Hora: 14:24 (11:24 UTC)

Pronòstic

L'informe es va fer fa 6 hores i 24 minuts, a les 05:00 UTC
Pronòstic vàlid del 18 a les 06 UTC al 19 a les 12 UTC
Vent 14 kt del Sud/Sud-Est
Visibilitat: 7000 m
Escasses núvols a una alçada de 4000 ft
Núvols disperses a una alçada de 8000 ft
Temporalment
l' 18 a les 06 UTC al 18 a les 16 UTC
Escasses núvols a una alçada de 2500 ft, Cumulonimbus.
Núvols disperses a una alçada de 4000 ft
tempesta, pluja

TAF: OERK 180500Z 1806/1912 16014KT 7000 FEW040 SCT080 TEMPO 1806/1816 TSRA FEW025CB SCT040

Observacions i pronòstics meteorològics de més de 4000 aeroports (METAR i TAF).

Les estacions disponibles són els punts grocs i vermells al mapa.

Posi el ratolí al punt desitjat per veure el nom de l'estació.

Feu clic per veure les observacions i els pronòstics meteorològics.

Per canviar el mapa: feu clic els botons verds amb una creu de color negre per apropar; al botó verd amb un guió per allunyar la imatge; o en les fletxes verdes per a mapes adjacents.


METAR-TAF: